sensor_id;sensor_type;location;lat;lon;timestamp;temperature;humidity
4312;DHT22;2169;49.086;9.284;2023-10-19T00:02:45;13.20;69.20
4312;DHT22;2169;49.086;9.284;2023-10-19T00:05:11;13.20;69.20
4312;DHT22;2169;49.086;9.284;2023-10-19T00:07:40;13.20;69.20
4312;DHT22;2169;49.086;9.284;2023-10-19T00:10:07;13.20;69.30
4312;DHT22;2169;49.086;9.284;2023-10-19T00:12:33;13.10;69.20
4312;DHT22;2169;49.086;9.284;2023-10-19T00:15:01;13.20;69.30
4312;DHT22;2169;49.086;9.284;2023-10-19T00:17:29;13.20;69.40
4312;DHT22;2169;49.086;9.284;2023-10-19T00:19:58;13.20;69.50
4312;DHT22;2169;49.086;9.284;2023-10-19T00:22:41;13.20;69.50
4312;DHT22;2169;49.086;9.284;2023-10-19T00:25:08;13.20;69.60
4312;DHT22;2169;49.086;9.284;2023-10-19T00:27:38;13.20;69.60
4312;DHT22;2169;49.086;9.284;2023-10-19T00:30:10;13.20;69.60
4312;DHT22;2169;49.086;9.284;2023-10-19T00:32:45;13.20;69.70
4312;DHT22;2169;49.086;9.284;2023-10-19T00:35:13;13.20;69.80
4312;DHT22;2169;49.086;9.284;2023-10-19T00:37:53;13.20;69.80
4312;DHT22;2169;49.086;9.284;2023-10-19T00:40:23;13.20;69.90
4312;DHT22;2169;49.086;9.284;2023-10-19T00:43:02;13.20;69.90
4312;DHT22;2169;49.086;9.284;2023-10-19T00:45:33;13.20;70.00
4312;DHT22;2169;49.086;9.284;2023-10-19T00:48:07;13.20;70.00
4312;DHT22;2169;49.086;9.284;2023-10-19T00:50:37;13.10;70.00
4312;DHT22;2169;49.086;9.284;2023-10-19T00:53:04;13.10;70.10
4312;DHT22;2169;49.086;9.284;2023-10-19T00:55:34;13.10;70.10
4312;DHT22;2169;49.086;9.284;2023-10-19T00:58:03;13.20;70.30
4312;DHT22;2169;49.086;9.284;2023-10-19T01:00:36;13.20;70.30
4312;DHT22;2169;49.086;9.284;2023-10-19T01:03:10;13.20;70.40
4312;DHT22;2169;49.086;9.284;2023-10-19T01:05:43;13.20;70.40
4312;DHT22;2169;49.086;9.284;2023-10-19T01:08:14;13.20;70.50
4312;DHT22;2169;49.086;9.284;2023-10-19T01:10:49;13.20;70.50
4312;DHT22;2169;49.086;9.284;2023-10-19T01:13:18;13.20;70.50
4312;DHT22;2169;49.086;9.284;2023-10-19T01:15:53;13.20;70.60
4312;DHT22;2169;49.086;9.284;2023-10-19T01:18:21;13.20;70.60
4312;DHT22;2169;49.086;9.284;2023-10-19T01:20:48;13.20;70.70
4312;DHT22;2169;49.086;9.284;2023-10-19T01:23:18;13.20;70.70
4312;DHT22;2169;49.086;9.284;2023-10-19T01:25:53;13.20;70.80
4312;DHT22;2169;49.086;9.284;2023-10-19T01:28:29;13.20;70.80
4312;DHT22;2169;49.086;9.284;2023-10-19T01:31:08;13.30;70.90
4312;DHT22;2169;49.086;9.284;2023-10-19T01:33:40;13.30;71.00
4312;DHT22;2169;49.086;9.284;2023-10-19T01:36:09;13.30;71.00
4312;DHT22;2169;49.086;9.284;2023-10-19T01:38:51;13.30;71.00
4312;DHT22;2169;49.086;9.284;2023-10-19T01:41:20;13.30;71.10
4312;DHT22;2169;49.086;9.284;2023-10-19T01:43:47;13.30;71.20
4312;DHT22;2169;49.086;9.284;2023-10-19T01:46:18;13.30;71.20
4312;DHT22;2169;49.086;9.284;2023-10-19T01:48:48;13.30;71.30
4312;DHT22;2169;49.086;9.284;2023-10-19T01:51:20;13.30;71.40
4312;DHT22;2169;49.086;9.284;2023-10-19T01:53:46;13.40;71.50
4312;DHT22;2169;49.086;9.284;2023-10-19T01:56:15;13.40;71.60
4312;DHT22;2169;49.086;9.284;2023-10-19T01:58:43;13.40;71.60
4312;DHT22;2169;49.086;9.284;2023-10-19T02:01:12;13.40;71.70
4312;DHT22;2169;49.086;9.284;2023-10-19T02:03:44;13.40;71.70
4312;DHT22;2169;49.086;9.284;2023-10-19T02:06:13;13.40;71.80
4312;DHT22;2169;49.086;9.284;2023-10-19T02:08:45;13.50;71.90
4312;DHT22;2169;49.086;9.284;2023-10-19T02:11:15;13.50;72.00
4312;DHT22;2169;49.086;9.284;2023-10-19T02:13:44;13.50;72.00
4312;DHT22;2169;49.086;9.284;2023-10-19T02:16:13;13.50;72.00
4312;DHT22;2169;49.086;9.284;2023-10-19T02:18:41;13.50;72.10
4312;DHT22;2169;49.086;9.284;2023-10-19T02:21:08;13.50;72.20
4312;DHT22;2169;49.086;9.284;2023-10-19T02:23:38;13.50;72.20
4312;DHT22;2169;49.086;9.284;2023-10-19T02:26:05;13.50;72.30
4312;DHT22;2169;49.086;9.284;2023-10-19T02:28:32;13.50;72.40
4312;DHT22;2169;49.086;9.284;2023-10-19T02:31:03;13.50;72.50
4312;DHT22;2169;49.086;9.284;2023-10-19T02:33:40;13.50;72.50
4312;DHT22;2169;49.086;9.284;2023-10-19T02:36:08;13.60;72.60
4312;DHT22;2169;49.086;9.284;2023-10-19T02:38:39;13.50;72.50
4312;DHT22;2169;49.086;9.284;2023-10-19T02:41:06;13.50;72.60
4312;DHT22;2169;49.086;9.284;2023-10-19T02:43:33;13.60;72.70
4312;DHT22;2169;49.086;9.284;2023-10-19T02:46:01;13.60;72.70
4312;DHT22;2169;49.086;9.284;2023-10-19T02:48:28;13.60;72.70
4312;DHT22;2169;49.086;9.284;2023-10-19T02:50:56;13.60;72.80
4312;DHT22;2169;49.086;9.284;2023-10-19T02:53:30;13.60;72.80
4312;DHT22;2169;49.086;9.284;2023-10-19T02:55:57;13.60;72.90
4312;DHT22;2169;49.086;9.284;2023-10-19T02:58:25;13.60;72.90
4312;DHT22;2169;49.086;9.284;2023-10-19T03:00:54;13.60;72.90
4312;DHT22;2169;49.086;9.284;2023-10-19T03:03:20;13.60;72.90
4312;DHT22;2169;49.086;9.284;2023-10-19T03:05:47;13.60;72.90
4312;DHT22;2169;49.086;9.284;2023-10-19T03:08:13;13.60;72.90
4312;DHT22;2169;49.086;9.284;2023-10-19T03:10:41;13.70;73.10
4312;DHT22;2169;49.086;9.284;2023-10-19T03:13:07;13.70;73.10
4312;DHT22;2169;49.086;9.284;2023-10-19T03:15:35;13.60;73.10
4312;DHT22;2169;49.086;9.284;2023-10-19T03:18:02;13.70;73.20
4312;DHT22;2169;49.086;9.284;2023-10-19T03:20:30;13.70;73.30
4312;DHT22;2169;49.086;9.284;2023-10-19T03:22:58;13.60;73.20
4312;DHT22;2169;49.086;9.284;2023-10-19T03:25:27;13.70;73.30
4312;DHT22;2169;49.086;9.284;2023-10-19T03:28:15;13.70;73.40
4312;DHT22;2169;49.086;9.284;2023-10-19T03:30:43;13.70;73.40
4312;DHT22;2169;49.086;9.284;2023-10-19T03:33:14;13.70;73.50
4312;DHT22;2169;49.086;9.284;2023-10-19T03:35:43;13.70;73.60
4312;DHT22;2169;49.086;9.284;2023-10-19T03:38:10;13.70;73.60
4312;DHT22;2169;49.086;9.284;2023-10-19T03:40:42;13.70;73.60
4312;DHT22;2169;49.086;9.284;2023-10-19T03:43:13;13.70;73.70
4312;DHT22;2169;49.086;9.284;2023-10-19T03:45:44;13.70;73.70
4312;DHT22;2169;49.086;9.284;2023-10-19T03:48:19;13.80;73.80
4312;DHT22;2169;49.086;9.284;2023-10-19T03:50:52;13.80;73.80
4312;DHT22;2169;49.086;9.284;2023-10-19T03:53:21;13.80;73.80
4312;DHT22;2169;49.086;9.284;2023-10-19T03:55:48;13.80;73.90
4312;DHT22;2169;49.086;9.284;2023-10-19T03:58:18;13.80;73.90
4312;DHT22;2169;49.086;9.284;2023-10-19T04:00:46;13.80;73.90
4312;DHT22;2169;49.086;9.284;2023-10-19T04:03:14;13.80;73.90
4312;DHT22;2169;49.086;9.284;2023-10-19T04:05:42;13.80;74.00
4312;DHT22;2169;49.086;9.284;2023-10-19T04:08:12;13.80;74.10
4312;DHT22;2169;49.086;9.284;2023-10-19T04:10:40;13.80;74.10
4312;DHT22;2169;49.086;9.284;2023-10-19T04:13:10;13.80;74.10
4312;DHT22;2169;49.086;9.284;2023-10-19T04:15:38;13.80;74.10
4312;DHT22;2169;49.086;9.284;2023-10-19T04:18:05;13.90;74.30
4312;DHT22;2169;49.086;9.284;2023-10-19T04:20:35;13.90;74.30
4312;DHT22;2169;49.086;9.284;2023-10-19T04:23:09;13.90;74.30
4312;DHT22;2169;49.086;9.284;2023-10-19T04:25:39;13.90;74.40
4312;DHT22;2169;49.086;9.284;2023-10-19T04:28:06;13.90;74.40
4312;DHT22;2169;49.086;9.284;2023-10-19T04:30:34;13.90;74.40
4312;DHT22;2169;49.086;9.284;2023-10-19T04:33:03;13.90;74.40
4312;DHT22;2169;49.086;9.284;2023-10-19T04:35:34;13.90;74.50
4312;DHT22;2169;49.086;9.284;2023-10-19T04:38:03;13.90;74.50
4312;DHT22;2169;49.086;9.284;2023-10-19T04:40:33;14.00;74.60
4312;DHT22;2169;49.086;9.284;2023-10-19T04:43:02;14.00;74.60
4312;DHT22;2169;49.086;9.284;2023-10-19T04:45:29;14.00;74.60
4312;DHT22;2169;49.086;9.284;2023-10-19T04:47:56;14.00;74.60
4312;DHT22;2169;49.086;9.284;2023-10-19T04:50:23;14.00;74.70
4312;DHT22;2169;49.086;9.284;2023-10-19T04:52:50;14.00;74.60
4312;DHT22;2169;49.086;9.284;2023-10-19T04:55:17;14.00;74.60
4312;DHT22;2169;49.086;9.284;2023-10-19T04:57:45;14.00;74.70
4312;DHT22;2169;49.086;9.284;2023-10-19T05:00:13;14.00;74.70
4312;DHT22;2169;49.086;9.284;2023-10-19T05:02:41;14.00;74.70
4312;DHT22;2169;49.086;9.284;2023-10-19T05:05:08;14.00;74.80
4312;DHT22;2169;49.086;9.284;2023-10-19T05:07:35;14.00;74.80
4312;DHT22;2169;49.086;9.284;2023-10-19T05:10:02;14.00;74.80
4312;DHT22;2169;49.086;9.284;2023-10-19T05:12:30;14.00;74.80
4312;DHT22;2169;49.086;9.284;2023-10-19T05:14:59;14.00;74.80
4312;DHT22;2169;49.086;9.284;2023-10-19T05:17:26;14.00;74.80
4312;DHT22;2169;49.086;9.284;2023-10-19T05:19:52;14.10;74.90
4312;DHT22;2169;49.086;9.284;2023-10-19T05:22:19;14.10;75.00
4312;DHT22;2169;49.086;9.284;2023-10-19T05:24:47;14.00;74.90
4312;DHT22;2169;49.086;9.284;2023-10-19T05:27:14;14.10;75.00
4312;DHT22;2169;49.086;9.284;2023-10-19T05:29:41;14.10;75.00
4312;DHT22;2169;49.086;9.284;2023-10-19T05:32:09;14.00;74.90
4312;DHT22;2169;49.086;9.284;2023-10-19T05:34:35;14.10;75.00
4312;DHT22;2169;49.086;9.284;2023-10-19T05:37:02;14.00;74.90
4312;DHT22;2169;49.086;9.284;2023-10-19T05:39:31;14.00;74.90
4312;DHT22;2169;49.086;9.284;2023-10-19T05:41:59;14.00;74.80
4312;DHT22;2169;49.086;9.284;2023-10-19T05:44:26;14.00;74.80
4312;DHT22;2169;49.086;9.284;2023-10-19T05:46:53;14.00;74.80
4312;DHT22;2169;49.086;9.284;2023-10-19T05:49:22;14.00;74.80
4312;DHT22;2169;49.086;9.284;2023-10-19T05:51:50;13.90;74.70
4312;DHT22;2169;49.086;9.284;2023-10-19T05:54:17;13.90;74.60
4312;DHT22;2169;49.086;9.284;2023-10-19T05:56:43;13.90;74.60
4312;DHT22;2169;49.086;9.284;2023-10-19T05:59:11;13.80;74.50
4312;DHT22;2169;49.086;9.284;2023-10-19T06:01:38;13.80;74.40
4312;DHT22;2169;49.086;9.284;2023-10-19T06:04:06;13.80;74.40
4312;DHT22;2169;49.086;9.284;2023-10-19T06:06:34;13.80;74.40
4312;DHT22;2169;49.086;9.284;2023-10-19T06:09:02;13.80;74.30
4312;DHT22;2169;49.086;9.284;2023-10-19T06:11:30;13.80;74.30
4312;DHT22;2169;49.086;9.284;2023-10-19T06:13:58;13.70;74.20
4312;DHT22;2169;49.086;9.284;2023-10-19T06:16:25;13.70;74.20
4312;DHT22;2169;49.086;9.284;2023-10-19T06:18:53;13.70;74.20
4312;DHT22;2169;49.086;9.284;2023-10-19T06:21:20;13.70;74.30
4312;DHT22;2169;49.086;9.284;2023-10-19T06:23:48;13.70;74.30
4312;DHT22;2169;49.086;9.284;2023-10-19T06:26:15;13.70;74.30
4312;DHT22;2169;49.086;9.284;2023-10-19T06:28:43;13.70;74.30
4312;DHT22;2169;49.086;9.284;2023-10-19T06:31:09;13.70;74.30
4312;DHT22;2169;49.086;9.284;2023-10-19T06:33:36;13.60;74.30
4312;DHT22;2169;49.086;9.284;2023-10-19T06:36:07;13.60;74.30
4312;DHT22;2169;49.086;9.284;2023-10-19T06:38:34;13.60;74.40
4312;DHT22;2169;49.086;9.284;2023-10-19T06:41:10;13.70;74.50
4312;DHT22;2169;49.086;9.284;2023-10-19T06:43:37;13.70;74.60
4312;DHT22;2169;49.086;9.284;2023-10-19T06:46:04;13.70;74.60
4312;DHT22;2169;49.086;9.284;2023-10-19T06:48:31;13.70;74.70
4312;DHT22;2169;49.086;9.284;2023-10-19T06:50:58;13.70;74.70
4312;DHT22;2169;49.086;9.284;2023-10-19T06:53:25;13.70;74.70
4312;DHT22;2169;49.086;9.284;2023-10-19T06:55:53;13.70;74.80
4312;DHT22;2169;49.086;9.284;2023-10-19T06:58:21;13.80;75.00
4312;DHT22;2169;49.086;9.284;2023-10-19T07:00:52;13.80;75.00
4312;DHT22;2169;49.086;9.284;2023-10-19T07:03:25;13.80;75.20
4312;DHT22;2169;49.086;9.284;2023-10-19T07:05:53;13.80;75.20
4312;DHT22;2169;49.086;9.284;2023-10-19T07:08:20;13.90;75.30
4312;DHT22;2169;49.086;9.284;2023-10-19T07:10:47;13.90;75.40
4312;DHT22;2169;49.086;9.284;2023-10-19T07:13:15;13.90;75.40
4312;DHT22;2169;49.086;9.284;2023-10-19T07:15:45;13.90;75.50
4312;DHT22;2169;49.086;9.284;2023-10-19T07:18:12;14.00;75.60
4312;DHT22;2169;49.086;9.284;2023-10-19T07:20:39;14.00;75.70
4312;DHT22;2169;49.086;9.284;2023-10-19T07:23:08;14.10;75.80
4312;DHT22;2169;49.086;9.284;2023-10-19T07:25:44;14.10;75.90
4312;DHT22;2169;49.086;9.284;2023-10-19T07:28:11;14.20;76.00
4312;DHT22;2169;49.086;9.284;2023-10-19T07:30:39;14.20;76.10
4312;DHT22;2169;49.086;9.284;2023-10-19T07:33:07;14.20;76.10
4312;DHT22;2169;49.086;9.284;2023-10-19T07:35:36;14.30;76.30
4312;DHT22;2169;49.086;9.284;2023-10-19T07:38:04;14.30;76.40
4312;DHT22;2169;49.086;9.284;2023-10-19T07:40:33;14.40;76.60
4312;DHT22;2169;49.086;9.284;2023-10-19T07:43:00;14.40;76.60
4312;DHT22;2169;49.086;9.284;2023-10-19T07:45:29;14.50;76.80
4312;DHT22;2169;49.086;9.284;2023-10-19T07:47:57;14.50;77.50
4312;DHT22;2169;49.086;9.284;2023-10-19T07:50:32;14.60;77.00
4312;DHT22;2169;49.086;9.284;2023-10-19T07:52:59;14.60;77.10
4312;DHT22;2169;49.086;9.284;2023-10-19T07:55:26;14.70;77.20
4312;DHT22;2169;49.086;9.284;2023-10-19T07:57:53;14.70;77.30
4312;DHT22;2169;49.086;9.284;2023-10-19T08:00:21;14.80;77.50
4312;DHT22;2169;49.086;9.284;2023-10-19T08:02:49;14.80;77.50
4312;DHT22;2169;49.086;9.284;2023-10-19T08:05:17;14.80;77.60
4312;DHT22;2169;49.086;9.284;2023-10-19T08:07:46;14.90;77.70
4312;DHT22;2169;49.086;9.284;2023-10-19T08:10:14;14.90;77.70
4312;DHT22;2169;49.086;9.284;2023-10-19T08:12:42;15.00;77.80
4312;DHT22;2169;49.086;9.284;2023-10-19T08:15:10;15.00;77.90
4312;DHT22;2169;49.086;9.284;2023-10-19T08:17:40;15.00;77.90
4312;DHT22;2169;49.086;9.284;2023-10-19T08:20:08;15.10;78.00
4312;DHT22;2169;49.086;9.284;2023-10-19T08:22:36;15.10;78.00
4312;DHT22;2169;49.086;9.284;2023-10-19T08:25:05;15.20;78.10
4312;DHT22;2169;49.086;9.284;2023-10-19T08:27:37;15.20;78.20
4312;DHT22;2169;49.086;9.284;2023-10-19T08:30:06;15.30;78.30
4312;DHT22;2169;49.086;9.284;2023-10-19T08:32:34;15.30;78.40
4312;DHT22;2169;49.086;9.284;2023-10-19T08:35:01;15.30;78.40
4312;DHT22;2169;49.086;9.284;2023-10-19T08:37:28;15.40;78.50
4312;DHT22;2169;49.086;9.284;2023-10-19T08:39:54;15.40;78.50
4312;DHT22;2169;49.086;9.284;2023-10-19T08:42:24;15.50;78.60
4312;DHT22;2169;49.086;9.284;2023-10-19T08:44:50;15.50;78.60
4312;DHT22;2169;49.086;9.284;2023-10-19T08:47:17;15.60;78.70
4312;DHT22;2169;49.086;9.284;2023-10-19T08:49:45;15.60;78.70
4312;DHT22;2169;49.086;9.284;2023-10-19T08:52:12;15.70;78.80
4312;DHT22;2169;49.086;9.284;2023-10-19T08:54:40;15.70;78.90
4312;DHT22;2169;49.086;9.284;2023-10-19T08:57:07;15.80;79.00
4312;DHT22;2169;49.086;9.284;2023-10-19T08:59:35;15.90;79.10
4312;DHT22;2169;49.086;9.284;2023-10-19T09:02:03;16.00;79.30
4312;DHT22;2169;49.086;9.284;2023-10-19T09:04:32;16.10;79.40
4312;DHT22;2169;49.086;9.284;2023-10-19T09:06:59;16.20;79.50
4312;DHT22;2169;49.086;9.284;2023-10-19T09:09:32;16.20;79.60
4312;DHT22;2169;49.086;9.284;2023-10-19T09:12:00;16.40;79.70
4312;DHT22;2169;49.086;9.284;2023-10-19T09:14:32;16.40;79.70
4312;DHT22;2169;49.086;9.284;2023-10-19T09:17:02;16.50;79.80
4312;DHT22;2169;49.086;9.284;2023-10-19T09:19:38;16.70;79.90
4312;DHT22;2169;49.086;9.284;2023-10-19T09:22:05;16.70;79.70
4312;DHT22;2169;49.086;9.284;2023-10-19T09:24:42;16.80;79.60
4312;DHT22;2169;49.086;9.284;2023-10-19T09:27:10;16.90;79.40
4312;DHT22;2169;49.086;9.284;2023-10-19T09:29:38;17.00;79.30
4312;DHT22;2169;49.086;9.284;2023-10-19T09:32:07;17.10;79.20
4312;DHT22;2169;49.086;9.284;2023-10-19T09:34:35;17.20;79.10
4312;DHT22;2169;49.086;9.284;2023-10-19T09:37:03;17.30;78.90
4312;DHT22;2169;49.086;9.284;2023-10-19T09:39:31;17.40;78.70
4312;DHT22;2169;49.086;9.284;2023-10-19T09:42:01;17.50;78.60
4312;DHT22;2169;49.086;9.284;2023-10-19T09:44:34;17.60;78.40
4312;DHT22;2169;49.086;9.284;2023-10-19T09:47:11;17.70;78.10
4312;DHT22;2169;49.086;9.284;2023-10-19T09:49:39;17.90;78.00
4312;DHT22;2169;49.086;9.284;2023-10-19T09:52:07;17.90;77.70
4312;DHT22;2169;49.086;9.284;2023-10-19T09:54:42;18.00;77.50
4312;DHT22;2169;49.086;9.284;2023-10-19T09:57:17;18.10;77.20
4312;DHT22;2169;49.086;9.284;2023-10-19T09:59:48;18.30;77.20
4312;DHT22;2169;49.086;9.284;2023-10-19T10:02:19;18.40;76.90
4312;DHT22;2169;49.086;9.284;2023-10-19T10:04:47;18.50;76.60
4312;DHT22;2169;49.086;9.284;2023-10-19T10:07:14;18.50;76.00
4312;DHT22;2169;49.086;9.284;2023-10-19T10:09:42;18.60;75.60
4312;DHT22;2169;49.086;9.284;2023-10-19T10:12:18;18.60;75.30
4312;DHT22;2169;49.086;9.284;2023-10-19T10:14:55;18.70;74.90
4312;DHT22;2169;49.086;9.284;2023-10-19T10:17:24;18.80;74.60
4312;DHT22;2169;49.086;9.284;2023-10-19T10:19:54;18.80;74.30
4312;DHT22;2169;49.086;9.284;2023-10-19T10:22:22;18.90;74.10
4312;DHT22;2169;49.086;9.284;2023-10-19T10:24:54;19.00;73.80
4312;DHT22;2169;49.086;9.284;2023-10-19T10:27:22;19.00;73.40
4312;DHT22;2169;49.086;9.284;2023-10-19T10:29:55;19.10;73.20
4312;DHT22;2169;49.086;9.284;2023-10-19T10:32:46;19.10;72.70
4312;DHT22;2169;49.086;9.284;2023-10-19T10:35:53;19.20;72.50
4312;DHT22;2169;49.086;9.284;2023-10-19T10:38:20;19.30;72.30
4312;DHT22;2169;49.086;9.284;2023-10-19T10:40:49;19.30;72.20
4312;DHT22;2169;49.086;9.284;2023-10-19T10:43:16;19.30;71.80
4312;DHT22;2169;49.086;9.284;2023-10-19T10:45:43;19.40;71.80
4312;DHT22;2169;49.086;9.284;2023-10-19T10:48:16;19.40;71.60
4312;DHT22;2169;49.086;9.284;2023-10-19T10:50:43;19.50;71.50
4312;DHT22;2169;49.086;9.284;2023-10-19T10:53:11;19.40;71.30
4312;DHT22;2169;49.086;9.284;2023-10-19T10:55:38;19.50;71.20
4312;DHT22;2169;49.086;9.284;2023-10-19T10:58:05;19.50;71.00
4312;DHT22;2169;49.086;9.284;2023-10-19T11:00:32;19.50;70.80
4312;DHT22;2169;49.086;9.284;2023-10-19T11:03:02;19.50;70.70
4312;DHT22;2169;49.086;9.284;2023-10-19T11:05:31;19.60;70.50
4312;DHT22;2169;49.086;9.284;2023-10-19T11:08:04;19.60;70.30
4312;DHT22;2169;49.086;9.284;2023-10-19T11:10:35;19.60;70.10
4312;DHT22;2169;49.086;9.284;2023-10-19T11:13:03;19.70;70.20
4312;DHT22;2169;49.086;9.284;2023-10-19T11:15:30;19.70;70.10
4312;DHT22;2169;49.086;9.284;2023-10-19T11:17:57;19.70;69.80
4312;DHT22;2169;49.086;9.284;2023-10-19T11:20:25;19.70;69.50
4312;DHT22;2169;49.086;9.284;2023-10-19T11:22:55;19.70;69.40
4312;DHT22;2169;49.086;9.284;2023-10-19T11:25:23;19.70;69.40
4312;DHT22;2169;49.086;9.284;2023-10-19T11:27:53;19.80;69.60
4312;DHT22;2169;49.086;9.284;2023-10-19T11:30:24;19.80;69.50
4312;DHT22;2169;49.086;9.284;2023-10-19T11:32:51;19.80;69.30
4312;DHT22;2169;49.086;9.284;2023-10-19T11:35:23;19.80;69.20
4312;DHT22;2169;49.086;9.284;2023-10-19T11:37:51;19.80;69.10
4312;DHT22;2169;49.086;9.284;2023-10-19T11:40:20;19.90;69.20
4312;DHT22;2169;49.086;9.284;2023-10-19T11:42:48;19.90;69.10
4312;DHT22;2169;49.086;9.284;2023-10-19T11:45:15;19.90;69.00
4312;DHT22;2169;49.086;9.284;2023-10-19T11:47:42;19.90;68.90
4312;DHT22;2169;49.086;9.284;2023-10-19T11:50:10;19.90;68.90
4312;DHT22;2169;49.086;9.284;2023-10-19T11:52:39;19.90;68.80
4312;DHT22;2169;49.086;9.284;2023-10-19T11:55:07;19.90;68.90
4312;DHT22;2169;49.086;9.284;2023-10-19T11:57:36;19.90;68.80
4312;DHT22;2169;49.086;9.284;2023-10-19T12:00:03;19.90;68.70
4312;DHT22;2169;49.086;9.284;2023-10-19T12:02:35;19.90;68.80
4312;DHT22;2169;49.086;9.284;2023-10-19T12:05:03;19.90;68.90
4312;DHT22;2169;49.086;9.284;2023-10-19T12:07:35;19.80;68.80
4312;DHT22;2169;49.086;9.284;2023-10-19T12:10:03;19.80;68.90
4312;DHT22;2169;49.086;9.284;2023-10-19T12:12:30;19.80;68.90
4312;DHT22;2169;49.086;9.284;2023-10-19T12:14:58;19.80;69.10
4312;DHT22;2169;49.086;9.284;2023-10-19T12:17:25;19.70;69.10
4312;DHT22;2169;49.086;9.284;2023-10-19T12:19:53;19.80;69.30
4312;DHT22;2169;49.086;9.284;2023-10-19T12:22:20;19.70;69.30
4312;DHT22;2169;49.086;9.284;2023-10-19T12:24:47;19.70;69.50
4312;DHT22;2169;49.086;9.284;2023-10-19T12:27:14;19.70;69.60
4312;DHT22;2169;49.086;9.284;2023-10-19T12:29:41;19.70;69.70
4312;DHT22;2169;49.086;9.284;2023-10-19T12:32:10;19.60;69.70
4312;DHT22;2169;49.086;9.284;2023-10-19T12:34:40;19.60;69.80
4312;DHT22;2169;49.086;9.284;2023-10-19T12:37:07;19.60;69.90
4312;DHT22;2169;49.086;9.284;2023-10-19T12:39:35;19.60;70.00
4312;DHT22;2169;49.086;9.284;2023-10-19T12:42:08;19.50;70.00
4312;DHT22;2169;49.086;9.284;2023-10-19T12:44:35;19.50;70.20
4312;DHT22;2169;49.086;9.284;2023-10-19T12:47:07;19.40;70.20
4312;DHT22;2169;49.086;9.284;2023-10-19T12:49:37;19.40;70.30
4312;DHT22;2169;49.086;9.284;2023-10-19T12:52:04;19.40;70.40
4312;DHT22;2169;49.086;9.284;2023-10-19T12:54:32;19.40;70.40
4312;DHT22;2169;49.086;9.284;2023-10-19T12:57:00;19.30;70.40
4312;DHT22;2169;49.086;9.284;2023-10-19T12:59:29;19.30;70.40
4312;DHT22;2169;49.086;9.284;2023-10-19T13:01:56;19.20;70.50
4312;DHT22;2169;49.086;9.284;2023-10-19T13:04:24;19.20;70.60
4312;DHT22;2169;49.086;9.284;2023-10-19T13:06:52;19.20;70.70
4312;DHT22;2169;49.086;9.284;2023-10-19T13:09:23;19.10;70.60
4312;DHT22;2169;49.086;9.284;2023-10-19T13:11:56;19.10;70.80
4312;DHT22;2169;49.086;9.284;2023-10-19T13:14:23;19.10;70.90
4312;DHT22;2169;49.086;9.284;2023-10-19T13:16:50;19.10;71.60
4312;DHT22;2169;49.086;9.284;2023-10-19T13:19:18;19.10;71.10
4312;DHT22;2169;49.086;9.284;2023-10-19T13:21:46;19.10;71.20
4312;DHT22;2169;49.086;9.284;2023-10-19T13:24:16;19.10;71.20
4312;DHT22;2169;49.086;9.284;2023-10-19T13:26:44;19.10;71.30
4312;DHT22;2169;49.086;9.284;2023-10-19T13:29:12;19.10;71.50
4312;DHT22;2169;49.086;9.284;2023-10-19T13:31:40;19.10;71.60
4312;DHT22;2169;49.086;9.284;2023-10-19T13:34:10;19.00;71.50
4312;DHT22;2169;49.086;9.284;2023-10-19T13:36:38;19.00;71.60
4312;DHT22;2169;49.086;9.284;2023-10-19T13:39:05;19.00;71.70
4312;DHT22;2169;49.086;9.284;2023-10-19T13:41:39;19.00;71.70
4312;DHT22;2169;49.086;9.284;2023-10-19T13:44:06;19.00;71.80
4312;DHT22;2169;49.086;9.284;2023-10-19T13:46:33;19.00;71.90
4312;DHT22;2169;49.086;9.284;2023-10-19T13:48:59;19.00;71.90
4312;DHT22;2169;49.086;9.284;2023-10-19T13:51:29;19.00;72.00
4312;DHT22;2169;49.086;9.284;2023-10-19T13:53:56;19.00;72.10
4312;DHT22;2169;49.086;9.284;2023-10-19T13:56:23;19.00;72.10
4312;DHT22;2169;49.086;9.284;2023-10-19T13:58:53;19.00;72.20
4312;DHT22;2169;49.086;9.284;2023-10-19T14:01:20;19.00;72.30
4312;DHT22;2169;49.086;9.284;2023-10-19T14:03:51;19.00;72.30
4312;DHT22;2169;49.086;9.284;2023-10-19T14:06:20;19.00;72.30
4312;DHT22;2169;49.086;9.284;2023-10-19T14:08:47;19.00;72.40
4312;DHT22;2169;49.086;9.284;2023-10-19T14:11:14;18.90;72.40
4312;DHT22;2169;49.086;9.284;2023-10-19T14:13:41;18.90;72.50
4312;DHT22;2169;49.086;9.284;2023-10-19T14:16:09;18.90;72.60
4312;DHT22;2169;49.086;9.284;2023-10-19T14:18:36;18.90;72.60
4312;DHT22;2169;49.086;9.284;2023-10-19T14:21:10;18.90;72.60
4312;DHT22;2169;49.086;9.284;2023-10-19T14:23:37;18.90;72.70
4312;DHT22;2169;49.086;9.284;2023-10-19T14:26:05;18.90;72.70
4312;DHT22;2169;49.086;9.284;2023-10-19T14:28:32;18.90;72.80
4312;DHT22;2169;49.086;9.284;2023-10-19T14:31:01;18.90;72.90
4312;DHT22;2169;49.086;9.284;2023-10-19T14:33:30;18.90;72.90
4312;DHT22;2169;49.086;9.284;2023-10-19T14:35:58;18.90;73.00
4312;DHT22;2169;49.086;9.284;2023-10-19T14:38:25;18.90;73.00
4312;DHT22;2169;49.086;9.284;2023-10-19T14:40:53;18.90;73.00
4312;DHT22;2169;49.086;9.284;2023-10-19T14:43:19;18.90;73.00
4312;DHT22;2169;49.086;9.284;2023-10-19T14:45:46;18.80;72.90
4312;DHT22;2169;49.086;9.284;2023-10-19T14:48:13;18.80;73.00
4312;DHT22;2169;49.086;9.284;2023-10-19T14:50:42;18.80;73.00
4312;DHT22;2169;49.086;9.284;2023-10-19T14:53:09;18.80;73.00
4312;DHT22;2169;49.086;9.284;2023-10-19T14:55:36;18.80;73.00
4312;DHT22;2169;49.086;9.284;2023-10-19T14:58:03;18.70;72.90
4312;DHT22;2169;49.086;9.284;2023-10-19T15:00:32;18.70;73.00
4312;DHT22;2169;49.086;9.284;2023-10-19T15:03:00;18.70;73.00
4312;DHT22;2169;49.086;9.284;2023-10-19T15:05:32;18.70;73.00
4312;DHT22;2169;49.086;9.284;2023-10-19T15:08:03;18.60;72.90
4312;DHT22;2169;49.086;9.284;2023-10-19T15:10:32;18.60;73.00
4312;DHT22;2169;49.086;9.284;2023-10-19T15:12:59;18.60;73.00
4312;DHT22;2169;49.086;9.284;2023-10-19T15:15:27;18.50;73.00
4312;DHT22;2169;49.086;9.284;2023-10-19T15:17:54;18.50;73.10
4312;DHT22;2169;49.086;9.284;2023-10-19T15:20:24;18.50;73.10
4312;DHT22;2169;49.086;9.284;2023-10-19T15:22:51;18.50;73.10
4312;DHT22;2169;49.086;9.284;2023-10-19T15:25:21;18.40;73.10
4312;DHT22;2169;49.086;9.284;2023-10-19T15:27:50;18.40;73.10
4312;DHT22;2169;49.086;9.284;2023-10-19T15:30:18;18.40;73.20
4312;DHT22;2169;49.086;9.284;2023-10-19T15:32:46;18.40;73.20
4312;DHT22;2169;49.086;9.284;2023-10-19T15:35:14;18.30;73.10
4312;DHT22;2169;49.086;9.284;2023-10-19T15:37:46;18.30;73.20
4312;DHT22;2169;49.086;9.284;2023-10-19T15:40:14;18.30;73.20
4312;DHT22;2169;49.086;9.284;2023-10-19T15:42:43;18.30;73.30
4312;DHT22;2169;49.086;9.284;2023-10-19T15:45:13;18.30;73.30
4312;DHT22;2169;49.086;9.284;2023-10-19T15:47:44;18.30;73.40
4312;DHT22;2169;49.086;9.284;2023-10-19T15:50:11;18.20;73.40
4312;DHT22;2169;49.086;9.284;2023-10-19T15:52:39;18.20;73.40
4312;DHT22;2169;49.086;9.284;2023-10-19T15:55:08;18.20;73.50
4312;DHT22;2169;49.086;9.284;2023-10-19T15:57:35;18.20;73.60
4312;DHT22;2169;49.086;9.284;2023-10-19T16:00:05;18.10;73.60
4312;DHT22;2169;49.086;9.284;2023-10-19T16:02:34;18.20;73.70
4312;DHT22;2169;49.086;9.284;2023-10-19T16:05:01;18.20;73.80
4312;DHT22;2169;49.086;9.284;2023-10-19T16:07:30;18.10;73.60
4312;DHT22;2169;49.086;9.284;2023-10-19T16:09:57;18.10;73.70
4312;DHT22;2169;49.086;9.284;2023-10-19T16:12:24;18.10;73.70
4312;DHT22;2169;49.086;9.284;2023-10-19T16:14:50;18.10;73.60